createdAt,value
2019-01-06T00:01:31.472Z,100901.00
2019-01-06T00:04:20.857Z,100900.00
2019-01-06T00:07:08.354Z,100904.00
2019-01-06T00:09:42.180Z,100903.00
2019-01-06T00:12:18.845Z,100903.00
2019-01-06T00:15:06.148Z,100913.00
2019-01-06T00:17:39.817Z,100903.00
2019-01-06T00:20:27.410Z,100898.00
2019-01-06T00:22:58.515Z,100911.00
2019-01-06T00:25:45.575Z,100907.00
2019-01-06T00:28:33.162Z,100915.00
2019-01-06T00:31:20.648Z,100920.00
2019-01-06T00:34:00.805Z,100921.00
2019-01-06T00:36:48.215Z,100909.00
2019-01-06T00:39:31.193Z,100921.00
2019-01-06T00:42:05.020Z,100934.00
2019-01-06T00:44:45.067Z,100933.00
2019-01-06T00:47:19.127Z,100935.00
2019-01-06T00:49:53.056Z,100940.00
2019-01-06T00:52:24.139Z,100938.00
2019-01-06T00:55:11.431Z,100927.00
2019-01-06T00:57:57.606Z,100931.00
2019-01-06T01:00:40.683Z,100921.00
2019-01-06T01:03:26.615Z,100928.00
2019-01-06T01:06:13.778Z,100932.00
2019-01-06T01:08:50.370Z,100945.00
2019-01-06T01:11:37.661Z,100932.00
2019-01-06T01:14:18.032Z,100935.00
2019-01-06T01:17:05.604Z,100942.00
2019-01-06T01:19:36.699Z,100954.00
2019-01-06T01:22:13.811Z,100957.00
2019-01-06T01:25:01.074Z,100952.00
2019-01-06T01:27:32.236Z,100957.00
2019-01-06T01:30:18.228Z,100959.00
2019-01-06T01:33:07.192Z,100963.00
2019-01-06T01:35:47.044Z,100961.00
2019-01-06T01:38:20.728Z,100962.00
2019-01-06T01:41:10.087Z,100968.00
2019-01-06T01:43:41.176Z,100970.00
2019-01-06T01:46:15.096Z,100967.00
2019-01-06T01:48:46.191Z,100974.00
2019-01-06T01:51:20.037Z,100968.00
2019-01-06T01:54:07.250Z,100977.00
2019-01-06T01:56:38.369Z,100976.00
2019-01-06T01:59:12.544Z,100977.00
2019-01-06T02:01:59.449Z,100985.00
2019-01-06T02:04:45.801Z,100987.00
2019-01-06T02:07:22.668Z,100994.00
2019-01-06T02:10:10.256Z,100999.00
2019-01-06T02:12:57.967Z,101005.00
2019-01-06T02:15:29.093Z,101009.00
2019-01-06T02:18:00.188Z,101012.00
2019-01-06T02:20:46.411Z,101000.00
2019-01-06T02:23:17.673Z,100991.00
2019-01-06T02:25:59.592Z,101001.00
2019-01-06T02:28:46.616Z,101005.00
2019-01-06T02:31:20.755Z,100993.00
2019-01-06T02:34:08.383Z,100991.00
2019-01-06T02:36:55.673Z,100984.00
2019-01-06T02:39:26.770Z,100997.00
2019-01-06T02:41:57.888Z,100992.00
2019-01-06T02:44:34.925Z,100979.00
2019-01-06T02:47:06.015Z,100994.00
2019-01-06T02:49:37.121Z,100997.00
2019-01-06T02:52:10.712Z,101003.00
2019-01-06T02:55:00.164Z,100995.00
2019-01-06T02:57:33.981Z,100999.00
2019-01-06T03:00:08.336Z,100999.00
2019-01-06T03:02:54.436Z,101015.00
2019-01-06T03:05:25.577Z,101008.00
2019-01-06T03:07:56.671Z,101008.00
2019-01-06T03:10:33.846Z,101012.00
2019-01-06T03:13:10.819Z,101013.00
2019-01-06T03:15:51.113Z,101021.00
2019-01-06T03:18:22.227Z,101007.00
2019-01-06T03:21:08.332Z,101009.00
2019-01-06T03:23:55.827Z,101010.00
2019-01-06T03:26:42.011Z,101008.00
2019-01-06T03:29:22.143Z,101007.00
2019-01-06T03:31:53.301Z,101013.00
2019-01-06T03:34:33.401Z,101010.00
2019-01-06T03:37:10.742Z,101003.00
2019-01-06T03:39:47.793Z,101006.00
2019-01-06T03:42:37.097Z,101011.00
2019-01-06T03:45:25.034Z,101015.00
2019-01-06T03:48:04.926Z,101013.00
2019-01-06T03:50:45.282Z,101013.00
2019-01-06T03:53:32.888Z,101011.00
2019-01-06T03:56:20.023Z,101013.00
2019-01-06T03:59:00.378Z,101024.00
2019-01-06T04:01:37.124Z,101023.00
2019-01-06T04:04:08.282Z,101030.00
2019-01-06T04:06:39.542Z,101022.00
2019-01-06T04:09:13.434Z,101021.00
2019-01-06T04:11:44.555Z,101023.00
2019-01-06T04:14:32.047Z,101033.00
2019-01-06T04:17:19.150Z,101028.00
2019-01-06T04:20:06.608Z,101032.00
2019-01-06T04:22:54.577Z,101028.00
2019-01-06T04:25:34.353Z,101033.00
2019-01-06T04:28:21.393Z,101038.00
2019-01-06T04:30:52.497Z,101025.00
2019-01-06T04:33:29.437Z,101035.00
2019-01-06T04:36:00.529Z,101039.00
2019-01-06T04:38:40.392Z,101037.00
2019-01-06T04:41:29.563Z,101041.00
2019-01-06T04:44:17.072Z,101043.00
2019-01-06T04:47:06.493Z,101056.00
2019-01-06T04:49:37.595Z,101043.00
2019-01-06T04:52:23.771Z,101044.00
2019-01-06T04:55:09.969Z,101049.00
2019-01-06T04:57:57.410Z,101047.00
2019-01-06T05:00:44.863Z,101049.00
2019-01-06T05:03:16.000Z,101047.00
2019-01-06T05:05:47.164Z,101053.00
2019-01-06T05:08:24.055Z,101056.00
2019-01-06T05:10:58.097Z,101070.00
2019-01-06T05:13:29.231Z,101074.00
2019-01-06T05:16:00.316Z,101069.00
2019-01-06T05:18:47.584Z,101073.00
2019-01-06T05:21:24.469Z,101071.00
2019-01-06T05:23:55.579Z,101063.00
2019-01-06T05:26:26.667Z,101073.00
2019-01-06T05:29:00.736Z,101079.00
2019-01-06T05:31:48.017Z,101088.00
2019-01-06T05:34:34.201Z,101091.00
2019-01-06T05:37:11.395Z,101082.00
2019-01-06T05:39:44.878Z,101094.00
2019-01-06T05:42:16.007Z,101096.00
2019-01-06T05:45:02.088Z,101093.00
2019-01-06T05:47:42.131Z,101094.00
2019-01-06T05:50:13.254Z,101091.00
2019-01-06T05:52:56.554Z,101107.00
2019-01-06T05:55:36.431Z,101106.00
2019-01-06T05:58:25.753Z,101106.00
2019-01-06T06:01:02.566Z,101118.00
2019-01-06T06:03:45.619Z,101110.00
2019-01-06T06:06:19.506Z,101112.00
2019-01-06T06:08:50.593Z,101116.00
2019-01-06T06:11:38.058Z,101110.00
2019-01-06T06:14:11.656Z,101120.00
2019-01-06T06:16:59.268Z,101111.00
2019-01-06T06:19:33.062Z,101122.00
2019-01-06T06:22:06.819Z,101126.00
2019-01-06T06:24:46.715Z,101127.00
2019-01-06T06:27:20.559Z,101137.00
2019-01-06T06:29:54.393Z,101140.00
2019-01-06T06:32:28.409Z,101142.00
2019-01-06T06:34:59.574Z,101142.00
2019-01-06T06:37:30.663Z,101146.00
2019-01-06T06:40:07.581Z,101145.00
2019-01-06T06:42:47.916Z,101152.00
2019-01-06T06:45:18.997Z,101150.00
2019-01-06T06:48:02.060Z,101159.00
2019-01-06T06:50:39.080Z,101159.00
2019-01-06T06:53:22.065Z,101164.00
2019-01-06T06:55:55.680Z,101165.00
2019-01-06T06:58:29.670Z,101169.00
2019-01-06T07:01:35.121Z,101160.00
2019-01-06T07:04:06.241Z,101168.00
2019-01-06T07:06:37.332Z,101176.00
2019-01-06T07:09:09.097Z,101183.00
2019-01-06T07:11:43.381Z,101182.00
2019-01-06T07:14:20.440Z,101184.00
2019-01-06T07:17:47.712Z,101189.00
2019-01-06T07:20:41.985Z,101190.00
2019-01-06T07:23:29.527Z,101198.00
2019-01-06T07:26:15.585Z,101197.00
2019-01-06T07:29:03.081Z,101203.00
2019-01-06T07:31:52.245Z,101205.00
2019-01-06T07:34:39.539Z,101204.00
2019-01-06T07:37:13.565Z,101214.00
2019-01-06T07:39:53.733Z,101208.00
2019-01-06T07:42:24.855Z,101209.00
2019-01-06T07:44:55.941Z,101223.00
2019-01-06T07:47:27.055Z,101212.00
2019-01-06T07:50:07.297Z,101224.00
2019-01-06T07:52:38.418Z,101222.00
2019-01-06T07:55:25.647Z,101231.00
2019-01-06T07:57:59.723Z,101226.00
2019-01-06T08:00:45.800Z,101224.00
2019-01-06T08:03:19.613Z,101247.00
2019-01-06T08:05:56.861Z,101238.00
2019-01-06T08:08:39.896Z,101234.00
2019-01-06T08:11:29.102Z,101239.00
2019-01-06T08:14:03.079Z,101242.00
2019-01-06T08:16:36.622Z,101243.00
2019-01-06T08:19:19.924Z,101239.00
2019-01-06T08:21:57.037Z,101249.00
2019-01-06T08:24:28.150Z,101243.00
2019-01-06T08:27:11.363Z,101247.00
2019-01-06T08:29:58.599Z,101269.00
2019-01-06T08:32:32.398Z,101252.00
2019-01-06T08:35:19.785Z,101263.00
2019-01-06T08:37:50.909Z,101265.00
2019-01-06T08:40:27.989Z,101265.00
2019-01-06T08:42:59.071Z,101270.00
2019-01-06T08:45:45.237Z,101270.00
2019-01-06T08:48:32.865Z,101281.00
2019-01-06T08:51:06.801Z,101282.00
2019-01-06T08:53:46.833Z,101285.00
2019-01-06T08:56:32.759Z,101286.00
2019-01-06T08:59:18.866Z,101287.00
2019-01-06T09:01:58.804Z,101294.00
2019-01-06T09:04:48.283Z,101287.00
2019-01-06T09:07:35.583Z,101292.00
2019-01-06T09:10:25.064Z,101298.00
2019-01-06T09:13:12.284Z,101305.00
2019-01-06T09:15:59.812Z,101295.00
2019-01-06T09:18:33.730Z,101302.00
2019-01-06T09:21:04.860Z,101316.00
2019-01-06T09:23:38.924Z,101312.00
2019-01-06T09:26:26.128Z,101314.00
2019-01-06T09:29:12.485Z,101308.00
2019-01-06T09:31:43.578Z,101314.00
2019-01-06T09:34:14.706Z,101310.00
2019-01-06T09:36:57.336Z,101329.00
2019-01-06T09:39:37.427Z,101332.00
2019-01-06T09:42:23.777Z,101323.00
2019-01-06T09:45:11.141Z,101326.00
2019-01-06T09:47:45.242Z,101324.00
2019-01-06T09:50:34.533Z,101324.00
2019-01-06T09:53:05.613Z,101324.00
2019-01-06T09:55:52.843Z,101331.00
2019-01-06T09:58:26.699Z,101329.00
2019-01-06T10:00:57.831Z,101323.00
2019-01-06T10:03:45.338Z,101326.00
2019-01-06T10:06:16.469Z,101318.00
2019-01-06T10:08:59.360Z,101336.00
2019-01-06T10:11:33.426Z,101326.00
2019-01-06T10:14:10.492Z,101329.00
2019-01-06T10:16:41.647Z,101321.00
2019-01-06T10:19:12.745Z,101320.00
2019-01-06T10:21:43.834Z,101332.00
2019-01-06T10:24:14.975Z,101322.00
2019-01-06T10:26:46.068Z,101321.00
2019-01-06T10:29:20.248Z,101321.00
2019-01-06T10:32:00.384Z,101323.00
2019-01-06T10:34:34.176Z,101317.00
2019-01-06T10:37:05.253Z,101325.00
2019-01-06T10:39:52.178Z,101323.00
2019-01-06T10:42:32.432Z,101325.00
2019-01-06T10:45:03.527Z,101326.00
2019-01-06T10:47:34.664Z,101337.00
2019-01-06T10:50:14.139Z,101322.00
2019-01-06T10:52:50.969Z,101335.00
2019-01-06T10:55:22.061Z,101339.00
2019-01-06T10:57:59.139Z,101335.00
2019-01-06T11:00:46.353Z,101324.00
2019-01-06T11:03:33.850Z,101322.00
2019-01-06T11:06:04.980Z,101329.00
2019-01-06T11:08:36.069Z,101327.00
2019-01-06T11:11:16.184Z,101319.00
2019-01-06T11:13:50.234Z,101328.00
2019-01-06T11:16:21.394Z,101326.00
2019-01-06T11:18:58.285Z,101329.00
2019-01-06T11:21:44.665Z,101326.00
2019-01-06T11:24:32.307Z,101334.00
2019-01-06T11:27:19.745Z,101335.00
2019-01-06T11:30:26.343Z,101340.00
2019-01-06T11:33:09.107Z,101344.00
2019-01-06T11:35:40.194Z,101343.00
2019-01-06T11:38:19.958Z,101335.00
2019-01-06T11:40:53.696Z,101335.00
2019-01-06T11:43:24.818Z,101336.00
2019-01-06T11:45:58.853Z,101338.00
2019-01-06T11:48:29.946Z,101337.00
2019-01-06T11:51:16.437Z,101332.00
2019-01-06T11:53:50.039Z,101331.00
2019-01-06T11:56:21.132Z,101344.00
2019-01-06T11:58:54.823Z,101348.00
2019-01-06T12:01:25.914Z,101357.00
2019-01-06T12:03:56.993Z,101351.00
2019-01-06T12:06:28.127Z,101360.00
2019-01-06T12:09:08.493Z,101355.00
2019-01-06T12:11:48.306Z,101355.00
2019-01-06T12:14:28.514Z,101360.00
2019-01-06T12:17:02.360Z,101344.00
2019-01-06T12:19:39.304Z,101350.00
2019-01-06T12:22:16.196Z,101351.00
2019-01-06T12:24:50.383Z,101365.00
2019-01-06T12:27:21.476Z,101350.00
2019-01-06T12:30:04.925Z,101363.00
2019-01-06T12:32:45.276Z,101370.00
2019-01-06T12:35:16.377Z,101364.00
2019-01-06T12:38:03.955Z,101369.00
2019-01-06T12:40:38.063Z,101370.00
2019-01-06T12:43:24.262Z,101372.00
2019-01-06T12:46:11.507Z,101373.00
2019-01-06T12:48:59.388Z,101373.00
2019-01-06T12:51:30.482Z,101369.00
2019-01-06T12:54:04.355Z,101382.00
2019-01-06T12:56:35.455Z,101384.00
2019-01-06T12:59:22.769Z,101384.00
2019-01-06T13:01:53.869Z,101377.00
2019-01-06T13:04:40.932Z,101393.00
2019-01-06T13:07:12.026Z,101403.00
2019-01-06T13:09:58.200Z,101411.00
2019-01-06T13:12:41.031Z,101399.00
2019-01-06T13:15:29.437Z,101395.00
2019-01-06T13:18:00.542Z,101401.00
2019-01-06T13:20:49.342Z,101400.00
2019-01-06T13:23:26.396Z,101403.00
2019-01-06T13:26:03.467Z,101415.00
2019-01-06T13:28:50.758Z,101410.00
2019-01-06T13:31:24.715Z,101408.00
2019-01-06T13:34:08.059Z,101415.00
2019-01-06T13:36:45.246Z,101404.00
2019-01-06T13:39:16.350Z,101413.00
2019-01-06T13:41:47.451Z,101420.00
2019-01-06T13:44:33.860Z,101414.00
2019-01-06T13:47:07.626Z,101413.00
2019-01-06T13:49:55.228Z,101425.00
2019-01-06T13:52:26.321Z,101426.00
2019-01-06T13:55:03.597Z,101425.00
2019-01-06T13:57:40.355Z,101423.00
2019-01-06T14:00:12.635Z,101426.00
2019-01-06T14:02:46.394Z,101427.00
2019-01-06T14:05:26.290Z,101425.00
2019-01-06T14:07:57.387Z,101425.00
2019-01-06T14:10:31.504Z,101433.00
2019-01-06T14:13:02.597Z,101436.00
2019-01-06T14:15:39.795Z,101441.00
2019-01-06T14:18:23.185Z,101443.00
2019-01-06T14:21:10.735Z,101453.00
2019-01-06T14:23:41.829Z,101453.00
2019-01-06T14:26:12.918Z,101448.00
2019-01-06T14:28:58.987Z,101448.00
2019-01-06T14:31:46.456Z,101460.00
2019-01-06T14:34:20.346Z,101470.00
2019-01-06T14:36:56.902Z,101457.00
2019-01-06T14:39:44.119Z,101457.00
2019-01-06T14:42:33.052Z,101464.00
2019-01-06T14:45:19.275Z,101453.00
2019-01-06T14:48:02.399Z,101459.00
2019-01-06T14:50:33.539Z,101463.00
2019-01-06T14:53:04.638Z,101465.00
2019-01-06T14:55:44.883Z,101455.00
2019-01-06T14:58:43.491Z,101471.00
2019-01-06T15:01:23.496Z,101470.00
2019-01-06T15:04:06.867Z,101476.00
2019-01-06T15:06:47.213Z,101481.00
2019-01-06T15:09:34.426Z,101481.00
2019-01-06T15:12:14.640Z,101483.00
2019-01-06T15:14:59.352Z,101485.00
2019-01-06T15:17:46.318Z,101496.00
2019-01-06T15:20:34.028Z,101497.00
2019-01-06T15:23:21.031Z,101494.00
2019-01-06T15:26:08.424Z,101494.00
2019-01-06T15:28:39.521Z,101502.00
2019-01-06T15:31:10.620Z,101494.00
2019-01-06T15:33:44.928Z,101504.00
2019-01-06T15:36:18.744Z,101504.00
2019-01-06T15:38:54.120Z,101500.00
2019-01-06T15:41:31.156Z,101509.00
2019-01-06T15:44:18.665Z,101513.00
2019-01-06T15:46:52.474Z,101519.00
2019-01-06T15:49:26.532Z,101524.00
2019-01-06T15:52:09.718Z,101529.00
2019-01-06T15:54:56.779Z,101529.00
2019-01-06T15:57:33.664Z,101530.00
2019-01-06T16:00:21.217Z,101532.00
2019-01-06T16:02:52.301Z,101534.00
2019-01-06T16:05:39.980Z,101536.00
2019-01-06T16:08:13.985Z,101534.00
2019-01-06T16:11:01.307Z,101541.00
2019-01-06T16:13:48.664Z,101555.00
2019-01-06T16:16:25.520Z,101546.00
2019-01-06T16:18:56.677Z,101556.00
2019-01-06T16:21:39.739Z,101551.00
2019-01-06T16:24:26.958Z,101555.00
2019-01-06T16:26:58.045Z,101554.00
2019-01-06T16:29:29.176Z,101558.00
2019-01-06T16:32:16.467Z,101554.00
2019-01-06T16:34:47.378Z,101559.00
2019-01-06T16:37:36.985Z,101563.00
2019-01-06T16:40:26.083Z,101568.00
2019-01-06T16:43:13.740Z,101575.00
2019-01-06T16:45:50.538Z,101569.00
2019-01-06T16:48:37.818Z,101582.00
2019-01-06T16:51:24.865Z,101589.00
2019-01-06T16:54:04.934Z,101581.00
2019-01-06T16:56:54.077Z,101597.00
2019-01-06T16:59:41.654Z,101587.00
2019-01-06T17:02:29.172Z,101595.00
2019-01-06T17:05:06.006Z,101593.00
2019-01-06T17:07:44.789Z,101596.00
2019-01-06T17:10:21.563Z,101601.00
2019-01-06T17:12:58.588Z,101604.00
2019-01-06T17:15:44.797Z,101607.00
2019-01-06T17:18:34.251Z,101607.00
2019-01-06T17:21:13.833Z,101614.00
2019-01-06T17:23:50.564Z,101614.00
2019-01-06T17:26:38.457Z,101607.00
2019-01-06T17:29:12.048Z,101600.00
2019-01-06T17:31:45.872Z,101616.00
2019-01-06T17:34:33.451Z,101618.00
2019-01-06T17:37:20.636Z,101616.00
2019-01-06T17:40:00.482Z,101622.00
2019-01-06T17:42:48.495Z,101622.00
2019-01-06T17:45:22.603Z,101631.00
2019-01-06T17:47:53.680Z,101628.00
2019-01-06T17:50:24.857Z,101631.00
2019-01-06T17:53:01.726Z,101632.00
2019-01-06T17:55:42.071Z,101635.00
2019-01-06T17:58:16.043Z,101637.00
2019-01-06T18:01:03.563Z,101641.00
2019-01-06T18:03:37.164Z,101646.00
2019-01-06T18:06:08.250Z,101635.00
2019-01-06T18:08:39.355Z,101641.00
2019-01-06T18:11:15.918Z,101637.00
2019-01-06T18:13:56.093Z,101635.00
2019-01-06T18:16:30.021Z,101629.00
2019-01-06T18:19:17.271Z,101637.00
2019-01-06T18:22:04.449Z,101631.00
2019-01-06T18:24:50.566Z,101647.00
2019-01-06T18:27:29.746Z,101646.00
2019-01-06T18:30:15.796Z,101649.00
2019-01-06T18:32:58.669Z,101670.00
2019-01-06T18:35:41.663Z,101660.00
2019-01-06T18:38:21.973Z,101671.00
2019-01-06T18:40:53.088Z,101669.00
2019-01-06T18:43:40.138Z,101655.00
2019-01-06T18:46:20.299Z,101653.00
2019-01-06T18:48:57.197Z,101654.00
2019-01-06T18:51:36.892Z,101654.00
2019-01-06T18:54:10.451Z,101656.00
2019-01-06T18:56:44.081Z,101666.00
2019-01-06T18:59:28.100Z,101657.00
2019-01-06T19:02:11.754Z,101656.00
2019-01-06T19:04:59.791Z,101660.00
2019-01-06T19:07:30.886Z,101670.00
2019-01-06T19:10:11.294Z,101679.00
2019-01-06T19:12:46.123Z,101680.00
2019-01-06T19:15:17.367Z,101681.00
2019-01-06T19:18:04.652Z,101674.00
2019-01-06T19:20:50.651Z,101677.00
2019-01-06T19:23:33.594Z,101680.00
2019-01-06T19:26:04.775Z,101684.00
2019-01-06T19:28:36.603Z,101672.00
2019-01-06T19:31:11.645Z,101673.00
2019-01-06T19:33:44.710Z,101679.00
2019-01-06T19:36:27.956Z,101679.00
2019-01-06T19:39:05.248Z,101675.00
2019-01-06T19:41:52.870Z,101674.00
2019-01-06T19:44:23.979Z,101680.00
2019-01-06T19:47:00.807Z,101681.00
2019-01-06T19:49:37.760Z,101681.00
2019-01-06T19:52:17.837Z,101682.00
2019-01-06T19:55:04.325Z,101692.00
2019-01-06T19:57:51.642Z,101688.00
2019-01-06T20:00:35.032Z,101685.00
2019-01-06T20:03:11.732Z,101694.00
2019-01-06T20:05:57.821Z,101695.00
2019-01-06T20:08:43.783Z,101697.00
2019-01-06T20:11:14.877Z,101698.00
2019-01-06T20:13:45.974Z,101705.00
2019-01-06T20:16:33.422Z,101704.00
2019-01-06T20:19:04.585Z,101713.00
2019-01-06T20:21:35.664Z,101710.00
2019-01-06T20:24:09.829Z,101706.00
2019-01-06T20:26:46.839Z,101712.00
2019-01-06T20:29:17.988Z,101710.00
2019-01-06T20:31:55.201Z,101704.00
2019-01-06T20:34:26.351Z,101717.00
2019-01-06T20:37:00.392Z,101717.00
2019-01-06T20:39:40.255Z,101717.00
2019-01-06T20:42:11.401Z,101715.00
2019-01-06T20:44:54.736Z,101714.00
2019-01-06T20:47:25.693Z,101713.00
2019-01-06T20:50:03.570Z,101718.00
2019-01-06T20:52:46.570Z,101724.00
2019-01-06T20:55:29.783Z,101720.00
2019-01-06T20:58:17.330Z,101727.00
2019-01-06T21:01:04.457Z,101724.00
2019-01-06T21:03:51.863Z,101726.00
2019-01-06T21:06:35.035Z,101722.00
2019-01-06T21:09:17.000Z,101730.00
2019-01-06T21:11:48.153Z,101720.00
2019-01-06T21:14:35.528Z,101725.00
2019-01-06T21:17:06.655Z,101723.00
2019-01-06T21:19:54.113Z,101724.00
2019-01-06T21:22:34.266Z,101732.00
2019-01-06T21:25:05.473Z,101725.00
2019-01-06T21:27:45.801Z,101726.00
2019-01-06T21:30:33.128Z,101728.00
2019-01-06T21:33:16.644Z,101725.00
2019-01-06T21:36:04.135Z,101732.00
2019-01-06T21:38:47.063Z,101734.00
2019-01-06T21:41:30.318Z,101725.00
2019-01-06T21:44:10.471Z,101728.00
2019-01-06T21:46:41.599Z,101730.00
2019-01-06T21:49:18.655Z,101725.00
2019-01-06T21:51:52.985Z,101715.00
2019-01-06T21:54:40.518Z,101728.00
2019-01-06T21:57:11.668Z,101732.00
2019-01-06T21:59:42.748Z,101727.00
2019-01-06T22:02:19.613Z,101726.00
2019-01-06T22:04:56.860Z,101705.00
2019-01-06T22:07:27.996Z,101714.00
2019-01-06T22:10:04.800Z,101719.00
2019-01-06T22:12:41.759Z,101708.00
2019-01-06T22:15:19.039Z,101712.00
2019-01-06T22:17:52.988Z,101733.00
2019-01-06T22:20:26.731Z,101731.00
2019-01-06T22:23:15.911Z,101728.00
2019-01-06T22:25:49.707Z,101727.00
2019-01-06T22:28:25.368Z,101735.00
2019-01-06T22:30:59.165Z,101726.00
2019-01-06T22:33:33.136Z,101720.00
2019-01-06T22:36:05.533Z,101721.00
2019-01-06T22:41:46.003Z,101722.00
2019-01-06T22:44:17.130Z,101721.00
2019-01-06T22:46:50.901Z,101720.00
2019-01-06T22:49:21.995Z,101725.00
2019-01-06T22:52:02.167Z,101726.00
2019-01-06T22:54:36.068Z,101730.00
2019-01-06T22:57:13.311Z,101740.00
2019-01-06T23:00:02.444Z,101738.00
2019-01-06T23:02:42.491Z,101747.00
2019-01-06T23:05:16.379Z,101733.00
2019-01-06T23:08:05.576Z,101724.00
2019-01-06T23:10:45.655Z,101725.00
2019-01-06T23:13:23.016Z,101732.00
2019-01-06T23:15:57.225Z,101738.00
2019-01-06T23:18:34.227Z,101733.00
2019-01-06T23:21:05.322Z,101733.00
2019-01-06T23:23:52.762Z,101726.00
2019-01-06T23:26:26.610Z,101728.00
2019-01-06T23:29:07.019Z,101727.00
2019-01-06T23:31:49.971Z,101737.00
2019-01-06T23:34:21.105Z,101733.00
2019-01-06T23:36:57.883Z,101737.00
2019-01-06T23:39:44.048Z,101739.00
2019-01-06T23:42:24.189Z,101744.00
2019-01-06T23:45:10.383Z,101751.00
2019-01-06T23:47:53.651Z,101744.00
2019-01-06T23:50:30.502Z,101759.00
2019-01-06T23:53:10.487Z,101756.00
2019-01-06T23:55:56.674Z,101755.00
2019-01-06T23:58:46.041Z,101752.00
